createdAt,value
2022-11-27T00:00:59.527Z,4.53
2022-11-27T00:02:01.245Z,4.52
2022-11-27T00:03:03.168Z,4.53
2022-11-27T00:04:04.800Z,4.52
2022-11-27T00:05:06.465Z,4.53
2022-11-27T00:06:08.215Z,4.52
2022-11-27T00:07:09.986Z,4.53
2022-11-27T00:08:11.666Z,4.54
2022-11-27T00:09:13.385Z,4.53
2022-11-27T00:10:15.119Z,4.52
2022-11-27T00:11:16.866Z,4.53
2022-11-27T00:12:18.605Z,4.52
2022-11-27T00:13:20.330Z,4.52
2022-11-27T00:14:22.070Z,4.52
2022-11-27T00:15:23.809Z,4.53
2022-11-27T00:16:25.639Z,4.53
2022-11-27T00:17:27.265Z,4.51
2022-11-27T00:18:29.007Z,4.52
2022-11-27T00:19:30.743Z,4.52
2022-11-27T00:20:32.462Z,4.53
2022-11-27T00:21:34.187Z,4.52
2022-11-27T00:22:35.944Z,4.52
2022-11-27T00:23:37.670Z,4.52
2022-11-27T00:24:39.829Z,4.53
2022-11-27T00:25:41.136Z,4.53
2022-11-27T00:26:42.868Z,4.52
2022-11-27T00:27:44.592Z,4.53
2022-11-27T00:28:46.328Z,4.51
2022-11-27T00:29:48.071Z,4.52
2022-11-27T00:30:49.838Z,4.52
2022-11-27T00:31:51.531Z,4.52
2022-11-27T00:32:53.269Z,4.52
2022-11-27T00:33:55.015Z,4.51
2022-11-27T00:34:56.739Z,4.51
2022-11-27T00:35:58.447Z,4.51
2022-11-27T00:37:00.201Z,4.51
2022-11-27T00:38:01.936Z,4.51
2022-11-27T00:39:03.676Z,4.51
2022-11-27T00:40:05.404Z,4.51
2022-11-27T00:41:08.196Z,4.51
2022-11-27T00:42:08.860Z,4.51
2022-11-27T00:43:10.596Z,4.51
2022-11-27T00:44:12.337Z,4.52
2022-11-27T00:45:14.061Z,4.51
2022-11-27T00:46:15.858Z,4.52
2022-11-27T00:47:17.532Z,4.52
2022-11-27T00:48:19.251Z,4.52
2022-11-27T00:49:21.011Z,4.52
2022-11-27T00:50:22.722Z,4.53
2022-11-27T00:51:24.476Z,4.53
2022-11-27T00:52:26.226Z,4.53
2022-11-27T00:53:27.926Z,4.53
2022-11-27T00:54:29.662Z,4.54
2022-11-27T00:55:31.393Z,4.54
2022-11-27T00:56:33.127Z,4.55
2022-11-27T00:57:34.863Z,4.56
2022-11-27T00:58:36.595Z,4.56
2022-11-27T00:59:38.362Z,4.56
2022-11-27T01:00:40.060Z,4.56
2022-11-27T01:01:41.885Z,4.57
2022-11-27T01:02:43.639Z,4.58
2022-11-27T01:03:45.269Z,4.58
2022-11-27T01:04:47.033Z,4.58
2022-11-27T01:05:48.726Z,4.58
2022-11-27T01:06:50.573Z,4.58
2022-11-27T01:07:52.279Z,4.6
2022-11-27T01:08:53.923Z,4.61
2022-11-27T01:09:55.730Z,4.59
2022-11-27T01:10:57.403Z,4.61
2022-11-27T01:11:59.124Z,4.62
2022-11-27T01:13:00.873Z,4.61
2022-11-27T01:14:02.604Z,4.61
2022-11-27T01:15:04.364Z,4.62
2022-11-27T01:16:06.116Z,4.62
2022-11-27T01:17:07.793Z,4.63
2022-11-27T01:18:09.542Z,4.63
2022-11-27T01:19:11.255Z,4.64
2022-11-27T01:20:13.020Z,4.64
2022-11-27T01:21:14.717Z,4.65
2022-11-27T01:22:16.473Z,4.65
2022-11-27T01:23:18.194Z,4.66
2022-11-27T01:24:19.943Z,4.65
2022-11-27T01:25:26.623Z,4.66
2022-11-27T01:26:23.413Z,4.66
2022-11-27T01:27:25.129Z,4.66
2022-11-27T01:28:26.885Z,4.66
2022-11-27T01:29:28.608Z,4.67
2022-11-27T01:30:30.352Z,4.67
2022-11-27T01:31:32.195Z,4.66
2022-11-27T01:32:33.803Z,4.67
2022-11-27T01:33:35.528Z,4.67
2022-11-27T01:34:37.343Z,4.67
2022-11-27T01:35:39.011Z,4.67
2022-11-27T01:36:40.726Z,4.64
2022-11-27T01:37:42.464Z,4.68
2022-11-27T01:38:44.210Z,4.68
2022-11-27T01:39:45.925Z,4.68
2022-11-27T01:40:47.663Z,4.68
2022-11-27T01:41:49.410Z,4.67
2022-11-27T01:42:51.137Z,4.67
2022-11-27T01:43:52.866Z,4.67
2022-11-27T01:44:54.604Z,4.68
2022-11-27T01:45:56.356Z,4.68
2022-11-27T01:46:58.109Z,4.67
2022-11-27T01:47:59.798Z,4.68
2022-11-27T01:49:01.559Z,4.67
2022-11-27T01:50:03.265Z,4.67
2022-11-27T01:51:05.012Z,4.68
2022-11-27T01:52:06.729Z,4.68
2022-11-27T01:53:08.485Z,4.68
2022-11-27T01:54:10.203Z,4.67
2022-11-27T01:55:11.956Z,4.68
2022-11-27T01:56:13.662Z,4.68
2022-11-27T01:57:15.404Z,4.68
2022-11-27T01:58:17.140Z,4.68
2022-11-27T01:59:18.869Z,4.67
2022-11-27T02:00:20.607Z,4.67
2022-11-27T02:01:22.447Z,4.68
2022-11-27T02:02:24.128Z,4.69
2022-11-27T02:03:25.890Z,4.68
2022-11-27T02:04:27.535Z,4.69
2022-11-27T02:05:29.487Z,4.69
2022-11-27T02:06:31.003Z,4.69
2022-11-27T02:07:32.770Z,4.7
2022-11-27T02:08:34.471Z,4.7
2022-11-27T02:09:36.209Z,4.7
2022-11-27T02:10:37.953Z,4.71
2022-11-27T02:11:39.689Z,4.71
2022-11-27T02:12:41.415Z,4.73
2022-11-27T02:13:43.137Z,4.72
2022-11-27T02:14:44.894Z,4.73
2022-11-27T02:15:46.652Z,4.74
2022-11-27T02:16:48.347Z,4.74
2022-11-27T02:17:50.153Z,4.74
2022-11-27T02:18:51.799Z,4.75
2022-11-27T02:19:53.561Z,4.76
2022-11-27T02:20:55.280Z,4.76
2022-11-27T02:21:57.003Z,4.76
2022-11-27T02:22:58.772Z,4.76
2022-11-27T02:24:00.475Z,4.77
2022-11-27T02:25:02.216Z,4.78
2022-11-27T02:26:03.921Z,4.77
2022-11-27T02:27:05.680Z,4.78
2022-11-27T02:28:07.411Z,4.79
2022-11-27T02:29:09.162Z,4.78
2022-11-27T02:30:10.885Z,4.77
2022-11-27T02:31:12.667Z,4.78
2022-11-27T02:32:14.347Z,4.78
2022-11-27T02:33:16.074Z,4.78
2022-11-27T02:34:17.808Z,4.78
2022-11-27T02:35:19.555Z,4.78
2022-11-27T02:36:21.267Z,4.78
2022-11-27T02:37:23.030Z,4.79
2022-11-27T02:38:24.742Z,4.79
2022-11-27T02:39:26.478Z,4.78
2022-11-27T02:40:28.231Z,4.78
2022-11-27T02:41:29.961Z,4.78
2022-11-27T02:42:31.689Z,4.77
2022-11-27T02:43:33.402Z,4.77
2022-11-27T02:44:35.137Z,4.77
2022-11-27T02:45:36.886Z,4.77
2022-11-27T02:46:38.639Z,4.76
2022-11-27T02:47:40.356Z,4.76
2022-11-27T02:48:42.079Z,4.75
2022-11-27T02:49:43.812Z,4.75
2022-11-27T02:50:45.562Z,4.75
2022-11-27T02:51:47.277Z,4.76
2022-11-27T02:52:49.009Z,4.75
2022-11-27T02:53:50.748Z,4.74
2022-11-27T02:54:52.466Z,4.74
2022-11-27T02:55:54.207Z,4.74
2022-11-27T02:56:55.942Z,4.74
2022-11-27T02:57:57.704Z,4.73
2022-11-27T02:58:59.408Z,4.73
2022-11-27T03:00:01.141Z,4.73
2022-11-27T03:01:02.891Z,4.72
2022-11-27T03:02:04.658Z,4.72
2022-11-27T03:03:06.425Z,4.72
2022-11-27T03:04:08.075Z,4.71
2022-11-27T03:05:09.808Z,4.7
2022-11-27T03:06:11.537Z,4.7
2022-11-27T03:07:13.331Z,4.7
2022-11-27T03:08:15.035Z,4.69
2022-11-27T03:09:16.746Z,4.68
2022-11-27T03:10:18.504Z,4.68
2022-11-27T03:11:20.216Z,4.68
2022-11-27T03:12:21.940Z,4.67
2022-11-27T03:13:23.677Z,4.67
2022-11-27T03:14:25.414Z,4.66
2022-11-27T03:15:27.187Z,4.66
2022-11-27T03:16:28.948Z,4.66
2022-11-27T03:17:30.609Z,4.65
2022-11-27T03:18:32.344Z,4.63
2022-11-27T03:19:34.100Z,4.63
2022-11-27T03:20:35.800Z,4.62
2022-11-27T03:21:37.561Z,4.63
2022-11-27T03:22:39.268Z,4.62
2022-11-27T03:23:41.020Z,4.63
2022-11-27T03:24:43.065Z,4.63
2022-11-27T03:25:44.472Z,4.62
2022-11-27T03:26:46.209Z,4.63
2022-11-27T03:27:47.939Z,4.62
2022-11-27T03:28:49.742Z,4.62
2022-11-27T03:29:51.418Z,4.62
2022-11-27T03:30:53.183Z,4.62
2022-11-27T03:31:54.906Z,4.62
2022-11-27T03:32:56.606Z,4.61
2022-11-27T03:33:58.335Z,4.6
2022-11-27T03:35:00.080Z,4.6
2022-11-27T03:36:01.794Z,4.59
2022-11-27T03:37:03.528Z,4.59
2022-11-27T03:38:05.269Z,4.59
2022-11-27T03:39:06.980Z,4.59
2022-11-27T03:40:08.713Z,4.58
2022-11-27T03:41:10.421Z,4.57
2022-11-27T03:42:12.188Z,4.57
2022-11-27T03:43:13.891Z,4.56
2022-11-27T03:44:15.650Z,4.56
2022-11-27T03:45:17.352Z,4.55
2022-11-27T03:46:19.123Z,4.55
2022-11-27T03:47:20.905Z,4.54
2022-11-27T03:48:22.565Z,4.53
2022-11-27T03:49:24.294Z,4.53
2022-11-27T03:50:26.026Z,4.51
2022-11-27T03:51:27.754Z,4.52
2022-11-27T03:52:29.498Z,4.51
2022-11-27T03:53:31.211Z,4.5
2022-11-27T03:54:32.974Z,4.49
2022-11-27T03:55:34.677Z,4.48
2022-11-27T03:56:36.424Z,4.47
2022-11-27T03:57:38.157Z,4.46
2022-11-27T03:58:39.883Z,4.46
2022-11-27T03:59:41.618Z,4.45
2022-11-27T04:00:43.342Z,4.44
2022-11-27T04:01:45.115Z,4.43
2022-11-27T04:02:46.789Z,4.42
2022-11-27T04:03:48.575Z,4.41
2022-11-27T04:04:50.250Z,4.41
2022-11-27T04:05:51.969Z,4.4
2022-11-27T04:06:53.693Z,4.39
2022-11-27T04:07:55.491Z,4.38
2022-11-27T04:08:57.153Z,4.37
2022-11-27T04:09:58.933Z,4.36
2022-11-27T04:11:00.608Z,4.36
2022-11-27T04:12:02.357Z,4.35
2022-11-27T04:13:04.107Z,4.32
2022-11-27T04:14:05.861Z,4.32
2022-11-27T04:15:07.566Z,4.3
2022-11-27T04:16:09.385Z,4.29
2022-11-27T04:17:11.014Z,4.25
2022-11-27T04:18:12.754Z,4.22
2022-11-27T04:19:14.501Z,4.2
2022-11-27T04:20:16.242Z,4.19
2022-11-27T04:21:17.945Z,4.17
2022-11-27T04:22:19.685Z,4.14
2022-11-27T04:23:21.436Z,4.13
2022-11-27T04:24:23.168Z,4.09
2022-11-27T04:25:24.903Z,4.06
2022-11-27T04:26:26.639Z,4.03
2022-11-27T04:27:28.380Z,4.03
2022-11-27T04:28:30.098Z,3.99
2022-11-27T04:29:31.816Z,3.97
2022-11-27T04:30:33.553Z,3.94
2022-11-27T04:31:35.343Z,3.92
2022-11-27T04:32:37.026Z,3.9
2022-11-27T04:33:38.765Z,3.86
2022-11-27T04:34:40.840Z,3.84
2022-11-27T04:35:42.232Z,3.82
2022-11-27T04:36:43.957Z,3.81
2022-11-27T04:37:45.690Z,3.79
2022-11-27T04:38:47.422Z,3.77
2022-11-27T04:39:49.134Z,3.76
2022-11-27T04:40:50.872Z,3.75
2022-11-27T04:41:52.583Z,3.73
2022-11-27T04:42:54.325Z,3.71
2022-11-27T04:43:56.057Z,3.69
2022-11-27T04:44:57.776Z,3.68
2022-11-27T04:45:59.529Z,3.66
2022-11-27T04:47:01.308Z,3.63
2022-11-27T04:48:02.974Z,3.61
2022-11-27T04:49:04.716Z,3.59
2022-11-27T04:50:06.458Z,3.55
2022-11-27T04:51:08.213Z,3.54
2022-11-27T04:52:09.926Z,3.53
2022-11-27T04:53:11.637Z,3.51
2022-11-27T04:54:13.391Z,3.5
2022-11-27T04:55:15.121Z,3.49
2022-11-27T04:56:16.864Z,3.47
2022-11-27T04:57:18.596Z,3.46
2022-11-27T04:58:20.317Z,3.44
2022-11-27T04:59:22.053Z,3.42
2022-11-27T05:00:23.790Z,3.42
2022-11-27T05:01:25.677Z,3.39
2022-11-27T05:02:27.292Z,3.39
2022-11-27T05:03:29.001Z,3.38
2022-11-27T05:04:30.724Z,3.38
2022-11-27T05:05:32.452Z,3.36
2022-11-27T05:06:34.206Z,3.36
2022-11-27T05:07:36.054Z,3.36
2022-11-27T05:08:37.658Z,3.35
2022-11-27T05:09:39.396Z,3.35
2022-11-27T05:10:41.134Z,3.34
2022-11-27T05:11:42.883Z,3.33
2022-11-27T05:12:44.599Z,3.32
2022-11-27T05:13:46.326Z,3.33
2022-11-27T05:14:48.086Z,3.33
2022-11-27T05:15:49.861Z,3.32
2022-11-27T05:16:51.533Z,3.33
2022-11-27T05:17:53.258Z,3.32
2022-11-27T05:18:54.993Z,3.31
2022-11-27T05:19:56.734Z,3.32
2022-11-27T05:20:58.467Z,3.31
2022-11-27T05:22:00.209Z,3.32
2022-11-27T05:23:01.925Z,3.32
2022-11-27T05:24:03.689Z,3.32
2022-11-27T05:25:05.394Z,3.31
2022-11-27T05:26:07.130Z,3.31
2022-11-27T05:27:08.878Z,3.3
2022-11-27T05:28:10.579Z,3.31
2022-11-27T05:29:12.313Z,3.3
2022-11-27T05:30:14.070Z,3.29
2022-11-27T05:31:15.884Z,3.29
2022-11-27T05:32:17.526Z,3.29
2022-11-27T05:33:19.261Z,3.29
2022-11-27T05:34:20.984Z,3.28
2022-11-27T05:35:22.751Z,3.28
2022-11-27T05:36:24.447Z,3.27
2022-11-27T05:37:26.200Z,3.27
2022-11-27T05:38:27.930Z,3.26
2022-11-27T05:39:29.664Z,3.27
2022-11-27T05:40:31.394Z,3.26
2022-11-27T05:41:33.126Z,3.25
2022-11-27T05:42:34.876Z,3.25
2022-11-27T05:43:36.590Z,3.24
2022-11-27T05:44:38.579Z,3.23
2022-11-27T05:45:40.061Z,3.23
2022-11-27T05:46:41.844Z,3.21
2022-11-27T05:47:43.541Z,3.19
2022-11-27T05:48:45.262Z,3.18
2022-11-27T05:49:46.983Z,3.15
2022-11-27T05:50:48.727Z,3.15
2022-11-27T05:51:51.597Z,3.14
2022-11-27T05:52:52.187Z,3.13
2022-11-27T05:53:53.922Z,3.12
2022-11-27T05:54:55.652Z,3.12
2022-11-27T05:55:57.380Z,3.1
2022-11-27T05:56:59.116Z,3.08
2022-11-27T05:58:00.873Z,3.09
2022-11-27T05:59:02.595Z,3.08
2022-11-27T06:00:04.330Z,3.06
2022-11-27T06:01:06.045Z,3.06
2022-11-27T06:02:07.874Z,3.04
2022-11-27T06:03:09.554Z,3.02
2022-11-27T06:04:11.247Z,3.02
2022-11-27T06:05:12.977Z,3.01
2022-11-27T06:06:14.730Z,2.98
2022-11-27T06:07:16.471Z,2.99
2022-11-27T06:08:18.192Z,2.98
2022-11-27T06:09:19.912Z,2.96
2022-11-27T06:10:21.651Z,2.96
2022-11-27T06:11:23.387Z,2.95
2022-11-27T06:12:25.123Z,2.94
2022-11-27T06:13:26.891Z,2.95
2022-11-27T06:14:28.589Z,2.94
2022-11-27T06:15:30.314Z,2.94
2022-11-27T06:16:32.100Z,2.93
2022-11-27T06:17:33.794Z,2.92
2022-11-27T06:18:35.538Z,2.92
2022-11-27T06:19:37.234Z,2.9
2022-11-27T06:20:43.354Z,2.91
2022-11-27T06:21:40.716Z,2.89
2022-11-27T06:22:42.455Z,2.88
2022-11-27T06:23:44.201Z,2.88
2022-11-27T06:24:45.918Z,2.88
2022-11-27T06:25:47.662Z,2.88
2022-11-27T06:26:49.402Z,2.86
2022-11-27T06:27:51.104Z,2.86
2022-11-27T06:28:52.864Z,2.85
2022-11-27T06:29:54.571Z,2.85
2022-11-27T06:30:56.309Z,2.85
2022-11-27T06:31:58.108Z,2.84
2022-11-27T06:32:59.782Z,2.83
2022-11-27T06:34:01.518Z,2.83
2022-11-27T06:35:03.257Z,2.83
2022-11-27T06:36:04.980Z,2.83
2022-11-27T06:37:10.453Z,2.82
2022-11-27T06:38:08.454Z,2.81
2022-11-27T06:39:10.178Z,2.8
2022-11-27T06:40:11.918Z,2.8
2022-11-27T06:41:13.642Z,2.79
2022-11-27T06:42:15.367Z,2.79
2022-11-27T06:43:17.116Z,2.79
2022-11-27T06:44:19.002Z,2.77
2022-11-27T06:45:20.579Z,2.77
2022-11-27T06:46:22.388Z,2.77
2022-11-27T06:47:24.043Z,2.77
2022-11-27T06:48:25.775Z,2.76
2022-11-27T06:49:27.527Z,2.75
2022-11-27T06:50:29.251Z,2.76
2022-11-27T06:51:30.979Z,2.76
2022-11-27T06:52:37.163Z,2.74
2022-11-27T06:53:34.465Z,2.75
2022-11-27T06:54:36.206Z,2.75
2022-11-27T06:55:37.909Z,2.75
2022-11-27T06:56:39.667Z,2.74
2022-11-27T06:57:41.384Z,2.74
2022-11-27T06:58:43.137Z,2.74
2022-11-27T06:59:44.852Z,2.74
2022-11-27T07:00:46.660Z,2.74
2022-11-27T07:01:48.627Z,2.74
2022-11-27T07:02:50.045Z,2.75
2022-11-27T07:03:51.780Z,2.75
2022-11-27T07:04:53.522Z,2.75
2022-11-27T07:05:55.297Z,2.75
2022-11-27T07:06:56.982Z,2.75
2022-11-27T07:07:58.849Z,2.76
2022-11-27T07:09:00.439Z,2.77
2022-11-27T07:10:02.212Z,2.78
2022-11-27T07:11:03.910Z,2.78
2022-11-27T07:12:05.655Z,2.78
2022-11-27T07:13:07.373Z,2.79
2022-11-27T07:14:09.105Z,2.8
2022-11-27T07:15:10.856Z,2.8
2022-11-27T07:16:12.647Z,2.8
2022-11-27T07:17:14.320Z,2.81
2022-11-27T07:18:16.140Z,2.82
2022-11-27T07:19:17.781Z,2.81
2022-11-27T07:20:19.509Z,2.81
2022-11-27T07:21:21.245Z,2.82
2022-11-27T07:22:22.998Z,2.82
2022-11-27T07:23:24.718Z,2.81
2022-11-27T07:24:26.436Z,2.81
2022-11-27T07:25:28.187Z,2.81
2022-11-27T07:26:29.950Z,2.8
2022-11-27T07:27:31.654Z,2.8
2022-11-27T07:28:33.401Z,2.79
2022-11-27T07:29:35.115Z,2.79
2022-11-27T07:30:36.847Z,2.79
2022-11-27T07:31:38.629Z,2.75
2022-11-27T07:32:40.317Z,2.75
2022-11-27T07:33:42.047Z,2.75
2022-11-27T07:34:43.774Z,2.75
2022-11-27T07:35:45.599Z,2.75
2022-11-27T07:36:47.261Z,2.75
2022-11-27T07:37:48.991Z,2.76
2022-11-27T07:38:50.705Z,2.76
2022-11-27T07:40:02.693Z,2.78
2022-11-27T07:40:54.166Z,2.79
2022-11-27T07:41:59.840Z,2.79
2022-11-27T07:42:57.644Z,2.78
2022-11-27T07:43:59.364Z,2.77
2022-11-27T07:45:01.128Z,2.75
2022-11-27T07:46:02.885Z,2.75
2022-11-27T07:47:04.588Z,2.73
2022-11-27T07:48:11.334Z,2.71
2022-11-27T07:49:13.052Z,2.68
2022-11-27T07:50:14.792Z,2.64
2022-11-27T07:51:16.535Z,2.6
2022-11-27T07:52:18.279Z,2.61
2022-11-27T07:53:20.014Z,2.6
2022-11-27T07:54:21.735Z,2.59
2022-11-27T07:55:23.465Z,2.59
2022-11-27T07:56:25.206Z,2.58
2022-11-27T07:57:26.933Z,2.58
2022-11-27T07:58:28.684Z,2.56
2022-11-27T07:59:30.389Z,2.57
2022-11-27T08:00:32.133Z,2.58
2022-11-27T08:01:33.931Z,2.57
2022-11-27T08:02:35.617Z,2.58
2022-11-27T08:03:37.360Z,2.57
2022-11-27T08:04:39.522Z,2.58
2022-11-27T08:05:40.827Z,2.59
2022-11-27T08:06:42.538Z,2.59
2022-11-27T08:07:44.357Z,2.59
2022-11-27T08:08:46.015Z,2.6
2022-11-27T08:09:47.746Z,2.59
2022-11-27T08:10:49.484Z,2.58
2022-11-27T08:12:11.823Z,2.57
2022-11-27T08:13:13.537Z,2.56
2022-11-27T08:14:15.258Z,2.56
2022-11-27T08:15:16.999Z,2.55
2022-11-27T08:16:18.819Z,2.56
2022-11-27T08:17:20.482Z,2.56
2022-11-27T08:18:22.198Z,2.55
2022-11-27T08:19:23.942Z,2.54
2022-11-27T08:20:25.747Z,2.53
2022-11-27T08:21:27.417Z,2.54
2022-11-27T08:22:29.157Z,2.54
2022-11-27T08:23:30.909Z,2.54
2022-11-27T08:24:32.648Z,2.54
2022-11-27T08:25:35.759Z,2.54
2022-11-27T08:27:21.595Z,2.53
2022-11-27T08:28:23.183Z,2.54
2022-11-27T08:29:23.643Z,2.55
2022-11-27T08:30:25.491Z,2.56
2022-11-27T08:31:30.003Z,2.57
2022-11-27T08:48:11.451Z,2.85
2022-11-27T08:49:13.168Z,2.86
2022-11-27T08:50:14.918Z,2.87
2022-11-27T08:51:16.662Z,2.89
2022-11-27T08:52:18.434Z,2.9
2022-11-27T08:53:24.701Z,2.93
2022-11-27T08:55:23.299Z,2.97
2022-11-27T08:56:25.040Z,3
2022-11-27T08:57:42.213Z,3.04
2022-11-27T08:58:43.933Z,3.07
2022-11-27T08:59:45.701Z,3.09
2022-11-27T09:00:46.152Z,3.13
2022-11-27T09:01:47.811Z,3.15
2022-11-27T09:04:12.668Z,3.2
2022-11-27T09:05:29.786Z,3.2
2022-11-27T09:07:17.197Z,3.21
2022-11-27T09:08:18.839Z,3.22
2022-11-27T09:10:11.936Z,3.23
2022-11-27T09:11:21.578Z,3.24
2022-11-27T09:13:32.402Z,3.25
2022-11-27T09:14:34.148Z,3.27
2022-11-27T09:15:46.353Z,3.28
2022-11-27T09:16:48.260Z,3.28
2022-11-27T09:17:49.659Z,3.29
2022-11-27T09:18:51.400Z,3.3
2022-11-27T09:20:49.326Z,3.28
2022-11-27T09:21:51.060Z,3.29
2022-11-27T09:22:52.793Z,3.28
2022-11-27T09:23:54.562Z,3.28
2022-11-27T09:25:00.207Z,3.3
2022-11-27T09:26:00.880Z,3.3
2022-11-27T09:27:02.645Z,3.32
2022-11-27T09:28:14.946Z,3.34
2022-11-27T09:29:16.394Z,3.36
2022-11-27T09:30:18.192Z,3.38
2022-11-27T09:31:21.296Z,3.4
2022-11-27T09:32:22.940Z,3.43
2022-11-27T09:33:23.303Z,3.47
2022-11-27T09:34:25.027Z,3.5
2022-11-27T09:35:39.468Z,3.53
2022-11-27T09:37:50.205Z,3.61
2022-11-27T09:39:02.645Z,3.62
2022-11-27T09:40:05.951Z,3.62
2022-11-27T09:41:10.816Z,3.62
2022-11-27T09:42:12.560Z,3.65
2022-11-27T09:43:32.759Z,3.67
2022-11-27T09:45:17.970Z,3.7
2022-11-27T09:46:24.041Z,3.71
2022-11-27T09:47:26.585Z,3.72
2022-11-27T09:48:28.360Z,3.72
2022-11-27T09:49:53.367Z,3.74
2022-11-27T09:52:16.649Z,3.77
2022-11-27T09:53:28.675Z,3.77
2022-11-27T09:54:32.790Z,3.77
2022-11-27T09:55:35.252Z,3.77
2022-11-27T09:56:37.009Z,3.77
2022-11-27T09:57:38.710Z,3.77
2022-11-27T09:58:40.437Z,3.76
2022-11-27T09:59:42.184Z,3.76
2022-11-27T10:00:43.923Z,3.75
2022-11-27T10:01:49.287Z,3.75
2022-11-27T10:02:47.489Z,3.75
2022-11-27T10:03:49.164Z,3.75
2022-11-27T10:05:13.051Z,3.76
2022-11-27T10:05:52.579Z,3.73
2022-11-27T10:06:54.329Z,3.71
2022-11-27T10:07:56.540Z,3.72
2022-11-27T10:08:57.786Z,3.72
2022-11-27T10:09:59.558Z,3.72
2022-11-27T10:11:01.260Z,3.72
2022-11-27T10:12:03.007Z,3.71
2022-11-27T10:13:04.732Z,3.71
2022-11-27T10:14:06.440Z,3.69
2022-11-27T10:15:08.174Z,3.7
2022-11-27T10:16:09.957Z,3.68
2022-11-27T10:17:11.774Z,3.69
2022-11-27T10:18:13.385Z,3.69
2022-11-27T10:19:15.124Z,3.68
2022-11-27T10:20:16.857Z,3.67
2022-11-27T10:21:18.590Z,3.66
2022-11-27T10:22:21.370Z,3.63
2022-11-27T10:23:22.038Z,3.65
2022-11-27T10:24:51.257Z,3.65
2022-11-27T10:25:52.975Z,3.65
2022-11-27T10:28:06.156Z,3.67
2022-11-27T10:29:12.856Z,3.68
2022-11-27T10:36:56.796Z,3.73
2022-11-27T10:39:32.969Z,3.73
2022-11-27T10:40:49.585Z,3.74
2022-11-27T10:41:51.138Z,3.73
2022-11-27T10:42:52.286Z,3.72
2022-11-27T10:43:57.415Z,3.71
2022-11-27T10:44:59.140Z,3.71
2022-11-27T10:46:00.959Z,3.71
2022-11-27T10:47:02.634Z,3.7
2022-11-27T10:48:04.514Z,3.71
2022-11-27T10:49:06.097Z,3.71
2022-11-27T10:50:07.854Z,3.68
2022-11-27T10:51:09.570Z,3.66
2022-11-27T10:52:11.294Z,3.67
2022-11-27T10:53:17.322Z,3.67
2022-11-27T10:54:41.106Z,3.68
2022-11-27T10:57:19.867Z,3.68
2022-11-27T10:58:21.630Z,3.68
2022-11-27T10:59:39.680Z,3.67
2022-11-27T11:00:41.444Z,3.67
2022-11-27T11:01:43.294Z,3.67
2022-11-27T11:02:44.974Z,3.68
2022-11-27T11:03:47.824Z,3.69
2022-11-27T11:05:09.059Z,3.69
2022-11-27T11:06:18.375Z,3.71
2022-11-27T11:06:51.841Z,3.73
2022-11-27T11:07:53.582Z,3.76
2022-11-27T11:09:00.111Z,3.8
2022-11-27T11:09:57.017Z,3.83
2022-11-27T11:10:58.761Z,3.86
2022-11-27T11:12:00.495Z,3.88
2022-11-27T11:13:02.228Z,3.9
2022-11-27T11:14:03.947Z,3.88
2022-11-27T11:15:05.677Z,3.89
2022-11-27T11:16:09.822Z,3.91
2022-11-27T11:17:09.188Z,3.94
2022-11-27T11:18:10.870Z,3.96
2022-11-27T11:19:12.637Z,4.01
2022-11-27T11:20:14.339Z,4.04
2022-11-27T11:21:16.075Z,4.09
2022-11-27T11:22:17.848Z,4.13
2022-11-27T11:23:19.531Z,4.17
2022-11-27T11:24:21.280Z,4.16
2022-11-27T11:25:22.996Z,4.23
2022-11-27T11:26:24.751Z,4.3
2022-11-27T11:27:26.499Z,4.33
2022-11-27T11:28:28.201Z,4.37
2022-11-27T11:29:29.928Z,4.4
2022-11-27T11:30:31.658Z,4.44
2022-11-27T11:31:33.505Z,4.46
2022-11-27T11:32:35.140Z,4.45
2022-11-27T11:33:36.869Z,4.47
2022-11-27T11:34:38.818Z,4.49
2022-11-27T11:35:40.324Z,4.51
2022-11-27T11:36:42.072Z,4.51
2022-11-27T11:37:43.811Z,4.53
2022-11-27T11:38:45.547Z,4.56
2022-11-27T11:39:47.270Z,4.57
2022-11-27T11:40:49.015Z,4.56
2022-11-27T11:41:50.744Z,4.57
2022-11-27T11:42:52.479Z,4.56
2022-11-27T11:43:54.212Z,4.58
2022-11-27T11:44:55.938Z,4.59
2022-11-27T11:45:57.711Z,4.61
2022-11-27T11:46:59.418Z,4.66
2022-11-27T11:48:42.180Z,4.74
2022-11-27T11:51:23.824Z,4.88
2022-11-27T11:52:29.879Z,4.99
2022-11-27T11:54:10.180Z,5.06
2022-11-27T11:55:17.228Z,5.1
2022-11-27T12:02:28.625Z,5.15
2022-11-27T12:04:48.614Z,5.17
2022-11-27T12:08:24.865Z,5.22
2022-11-27T12:09:27.065Z,5.24
2022-11-27T12:10:28.258Z,5.26
2022-11-27T12:11:30.570Z,5.26
2022-11-27T12:12:32.250Z,5.27
2022-11-27T12:13:34.054Z,5.29
2022-11-27T12:14:37.156Z,5.3
2022-11-27T12:15:46.828Z,5.31
2022-11-27T12:17:02.976Z,5.31
2022-11-27T12:18:07.201Z,5.33
2022-11-27T12:19:08.934Z,5.33
2022-11-27T12:20:10.669Z,5.34
2022-11-27T12:21:12.406Z,5.33
2022-11-27T12:22:14.130Z,5.34
2022-11-27T12:23:28.635Z,5.36
2022-11-27T12:24:29.028Z,5.36
2022-11-27T12:25:30.769Z,5.33
2022-11-27T12:26:32.504Z,5.3
2022-11-27T12:27:34.227Z,5.32
2022-11-27T12:28:35.960Z,5.31
2022-11-27T12:29:41.885Z,5.31
2022-11-27T12:30:42.299Z,5.32
2022-11-27T12:31:48.578Z,5.3
2022-11-27T12:33:10.121Z,5.32
2022-11-27T12:34:13.229Z,5.29
2022-11-27T12:37:14.315Z,5.32
2022-11-27T12:38:52.497Z,5.32
2022-11-27T12:39:53.551Z,5.32
2022-11-27T12:40:56.015Z,5.31
2022-11-27T12:41:57.779Z,5.3
2022-11-27T12:43:04.826Z,5.3
2022-11-27T12:44:08.617Z,5.27
2022-11-27T12:45:31.023Z,5.27
2022-11-27T12:47:04.203Z,5.25
2022-11-27T12:48:07.337Z,5.23
2022-11-27T12:49:07.665Z,5.21
2022-11-27T12:50:09.388Z,5.2
2022-11-27T12:51:11.143Z,5.17
2022-11-27T12:52:12.874Z,5.11
2022-11-27T12:53:35.606Z,5.1
2022-11-27T12:54:40.448Z,5.09
2022-11-27T12:55:41.771Z,5.08
2022-11-27T12:56:43.581Z,5.06
2022-11-27T12:57:45.224Z,5.05
2022-11-27T12:58:46.944Z,5.04
2022-11-27T12:59:48.674Z,5.03
2022-11-27T13:00:50.499Z,4.99
2022-11-27T13:01:52.268Z,4.99
2022-11-27T13:02:53.953Z,4.99
2022-11-27T13:03:55.625Z,4.97
2022-11-27T13:04:57.349Z,4.97
2022-11-27T13:05:59.110Z,4.95
2022-11-27T13:07:00.824Z,4.92
2022-11-27T13:08:02.684Z,4.9
2022-11-27T13:09:04.282Z,4.9
2022-11-27T13:10:06.021Z,4.88
2022-11-27T13:11:07.762Z,4.87
2022-11-27T13:12:09.526Z,4.85
2022-11-27T13:14:53.948Z,4.8
2022-11-27T13:15:55.674Z,4.79
2022-11-27T13:16:57.457Z,4.77
2022-11-27T13:17:59.136Z,4.75
2022-11-27T13:19:00.917Z,4.74
2022-11-27T13:20:02.615Z,4.73
2022-11-27T13:21:04.347Z,4.72
2022-11-27T13:22:06.077Z,4.68
2022-11-27T13:23:07.796Z,4.67
2022-11-27T13:24:09.527Z,4.66
2022-11-27T13:25:11.273Z,4.64
2022-11-27T13:26:12.996Z,4.61
2022-11-27T13:27:14.755Z,4.6
2022-11-27T13:28:16.484Z,4.59
2022-11-27T13:29:18.205Z,4.56
2022-11-27T13:30:19.943Z,4.54
2022-11-27T13:31:21.764Z,4.51
2022-11-27T13:32:23.412Z,4.49
2022-11-27T13:33:25.154Z,4.47
2022-11-27T13:34:26.887Z,4.47
2022-11-27T13:35:28.601Z,4.45
2022-11-27T13:36:35.759Z,4.44
2022-11-27T13:37:32.071Z,4.44
2022-11-27T13:38:33.811Z,4.41
2022-11-27T13:39:35.548Z,4.42
2022-11-27T13:40:37.291Z,4.41
2022-11-27T13:41:39.005Z,4.41
2022-11-27T13:42:40.744Z,4.4
2022-11-27T13:43:42.454Z,4.41
2022-11-27T13:44:44.295Z,4.4
2022-11-27T13:45:45.993Z,4.4
2022-11-27T13:46:47.664Z,4.4
2022-11-27T13:47:49.395Z,4.4
2022-11-27T13:48:51.118Z,4.41
2022-11-27T13:49:52.854Z,4.42
2022-11-27T13:50:54.578Z,4.38
2022-11-27T13:51:56.334Z,4.4
2022-11-27T13:52:58.064Z,4.36
2022-11-27T13:53:59.785Z,4.34
2022-11-27T13:55:01.527Z,4.35
2022-11-27T13:56:03.250Z,4.34
2022-11-27T13:57:05.038Z,4.3
2022-11-27T13:58:06.722Z,4.3
2022-11-27T13:59:08.428Z,4.29
2022-11-27T14:00:10.292Z,4.28
2022-11-27T14:01:11.954Z,4.28
2022-11-27T14:02:13.751Z,4.27
2022-11-27T14:03:15.376Z,4.26
2022-11-27T14:04:17.098Z,4.26
2022-11-27T14:05:18.835Z,4.27
2022-11-27T14:06:20.581Z,4.26
2022-11-27T14:07:22.356Z,4.26
2022-11-27T14:08:24.041Z,4.27
2022-11-27T14:09:25.789Z,4.27
2022-11-27T14:10:27.505Z,4.27
2022-11-27T14:11:29.243Z,4.25
2022-11-27T14:12:30.988Z,4.25
2022-11-27T14:13:32.719Z,4.25
2022-11-27T14:14:34.461Z,4.25
2022-11-27T14:15:36.235Z,4.26
2022-11-27T14:16:37.905Z,4.25
2022-11-27T14:17:39.638Z,4.26
2022-11-27T14:18:41.363Z,4.24
2022-11-27T14:19:43.110Z,4.24
2022-11-27T14:20:44.843Z,4.24
2022-11-27T14:21:46.589Z,4.24
2022-11-27T14:23:10.621Z,4.23
2022-11-27T14:23:50.044Z,4.22
2022-11-27T14:24:51.761Z,4.22
2022-11-27T14:25:53.508Z,4.22
2022-11-27T14:26:55.227Z,4.22
2022-11-27T14:27:57.022Z,4.22
2022-11-27T14:28:58.713Z,4.21
2022-11-27T14:30:00.429Z,4.2
2022-11-27T14:31:02.145Z,4.2
2022-11-27T14:32:03.989Z,4.19
2022-11-27T14:33:05.621Z,4.18
2022-11-27T14:34:16.182Z,4.18
2022-11-27T14:35:09.088Z,4.17
2022-11-27T14:36:10.809Z,4.18
2022-11-27T14:37:12.561Z,4.17
2022-11-27T14:38:14.289Z,4.16
2022-11-27T14:39:16.015Z,4.16
2022-11-27T14:40:17.757Z,4.15
2022-11-27T14:41:19.533Z,4.15
2022-11-27T14:42:25.084Z,4.15
2022-11-27T14:43:22.950Z,4.14
2022-11-27T14:44:24.711Z,4.14
2022-11-27T14:45:26.440Z,4.12